Upper Skagit Indian Reservat, Washington
Current Conditions -  °F | °C
As of 6:55 PM on Friday 21 Nov 2014 (Local Time) from KBVS Reporting Station
Overcast Overcast  
Wind Chill: 50°   Ceiling: 2000
Heat Index: 50°   Visibility: 10mi
Dew Point: 46°   Wind: 8mph
Humidity: 87%   Direction: 100°E
Pressure: 29.3"   Gusts: NA
Location:  48.4982°N, 122.346°W
Report Text: KBVS 220255Z AUTO 10007KT 10SM OVC020 10/08 A2930 RMK A01 P003
Loading
Personal Weather Stations






























Interactive Weather Map New forecast layout! Learn more

10-Day Weather Forecast

Advertisements
Track Severe Weather on mobile